createdAt,value
2022-09-27T00:05:40.573Z,100
2022-09-27T00:15:41.244Z,100
2022-09-27T00:35:42.708Z,100
2022-09-27T00:45:43.246Z,100
2022-09-27T01:05:44.789Z,100
2022-09-27T01:15:45.592Z,100
2022-09-27T01:25:45.668Z,100
2022-09-27T01:35:46.438Z,100
2022-09-27T01:45:46.722Z,100
2022-09-27T02:05:48.442Z,100
2022-09-27T02:15:49.266Z,100
2022-09-27T02:35:50.262Z,100
2022-09-27T02:45:51.246Z,100
2022-09-27T02:55:51.807Z,100
2022-09-27T03:05:52.633Z,100
2022-09-27T03:15:54.229Z,100
2022-09-27T03:25:54.480Z,100
2022-09-27T03:35:55.083Z,100
2022-09-27T03:45:55.844Z,100
2022-09-27T03:55:56.793Z,100
2022-09-27T04:05:57.809Z,100
2022-09-27T04:15:58.072Z,100
2022-09-27T04:25:58.686Z,100
2022-09-27T04:45:59.707Z,100
2022-09-27T04:56:00.662Z,100
2022-09-27T05:06:01.658Z,100
2022-09-27T05:16:02.645Z,100
2022-09-27T05:26:03.537Z,100
2022-09-27T05:36:03.654Z,100
2022-09-27T05:46:04.131Z,100
2022-09-27T05:56:04.725Z,100
2022-09-27T06:06:05.602Z,100
2022-09-27T06:16:06.241Z,100
2022-09-27T06:26:06.845Z,100
2022-09-27T06:36:07.549Z,100
2022-09-27T06:46:07.599Z,100
2022-09-27T06:56:08.119Z,100
2022-09-27T07:06:08.806Z,100
2022-09-27T07:16:09.817Z,100
2022-09-27T07:26:10.236Z,100
2022-09-27T07:46:10.987Z,100
2022-09-27T07:56:11.019Z,100
2022-09-27T08:06:11.445Z,100
2022-09-27T08:16:12.311Z,100
2022-09-27T08:26:13.144Z,100
2022-09-27T08:36:13.295Z,100
2022-09-27T08:46:14.173Z,100
2022-09-27T08:56:14.324Z,99
2022-09-27T09:16:15.201Z,98
2022-09-27T09:26:16.029Z,98
2022-09-27T09:36:16.557Z,96
2022-09-27T09:56:17.466Z,97
2022-09-27T10:06:18.042Z,98
2022-09-27T10:16:18.884Z,97
2022-09-27T10:26:19.268Z,97
2022-09-27T10:36:20.222Z,96
2022-09-27T10:46:21.114Z,95
2022-09-27T10:56:21.735Z,95
2022-09-27T11:06:22.054Z,94
2022-09-27T11:16:22.691Z,95
2022-09-27T11:26:22.973Z,97
2022-09-27T11:36:23.544Z,98
2022-09-27T11:46:29.163Z,100
2022-09-27T11:56:24.270Z,100
2022-09-27T12:26:25.532Z,96
2022-09-27T12:36:25.884Z,95
2022-09-27T12:46:26.856Z,93
2022-09-27T12:56:26.922Z,92
2022-09-27T13:06:27.773Z,91
2022-09-27T13:26:28.888Z,90
2022-09-27T13:36:29.506Z,89
2022-09-27T13:46:30.183Z,87
2022-09-27T13:56:30.680Z,89
2022-09-27T14:06:31.706Z,89
2022-09-27T14:16:31.981Z,91
2022-09-27T14:26:32.864Z,92
2022-09-27T14:46:34.616Z,91
2022-09-27T15:06:36.312Z,88
2022-09-27T15:16:36.435Z,87
2022-09-27T15:26:37.106Z,87
2022-09-27T15:56:38.079Z,87
2022-09-27T16:06:38.578Z,89
2022-09-27T16:16:39.000Z,89
2022-09-27T16:26:39.211Z,89
2022-09-27T16:36:39.557Z,89
2022-09-27T16:46:40.316Z,89
2022-09-27T16:56:40.749Z,90
2022-09-27T17:06:41.606Z,91
2022-09-27T17:16:42.134Z,91
2022-09-27T17:26:42.981Z,92
2022-09-27T17:36:43.922Z,92
2022-09-27T17:46:44.570Z,93
2022-09-27T18:06:45.211Z,90
2022-09-27T18:16:45.327Z,90
2022-09-27T18:26:45.977Z,91
2022-09-27T18:36:46.195Z,92
2022-09-27T18:46:46.416Z,94
2022-09-27T18:56:47.152Z,94
2022-09-27T19:16:47.606Z,97
2022-09-27T19:26:48.312Z,98
2022-09-27T19:36:48.466Z,98
2022-09-27T19:46:48.852Z,98
2022-09-27T19:56:49.531Z,99
2022-09-27T20:06:49.809Z,100
2022-09-27T20:16:50.335Z,100
2022-09-27T20:26:51.062Z,100
2022-09-27T20:36:51.666Z,100
2022-09-27T20:46:52.211Z,100
2022-09-27T20:56:52.655Z,100
2022-09-27T21:06:53.006Z,100
2022-09-27T21:16:53.384Z,100
2022-09-27T21:26:53.563Z,100
2022-09-27T21:36:53.817Z,100
2022-09-27T21:56:54.060Z,100
2022-09-27T22:06:54.609Z,100
2022-09-27T22:16:54.691Z,100
2022-09-27T22:26:55.148Z,100
2022-09-27T22:36:55.311Z,100
2022-09-27T22:46:56.240Z,100
2022-09-27T22:56:56.656Z,100
2022-09-27T23:06:56.741Z,100
2022-09-27T23:16:57.520Z,100
2022-09-27T23:26:58.258Z,100
2022-09-27T23:36:59.093Z,100
2022-09-27T23:46:59.754Z,100
2022-09-27T23:57:00.462Z,100
